sensor_id;sensor_type;location;lat;lon;timestamp;P1;durP1;ratioP1;P2;durP2;ratioP2
18196;SDS011;9224;52.422;13.024;2022-11-28T00:02:06;19.52;;;15.75;;
18196;SDS011;9224;52.422;13.024;2022-11-28T00:04:33;22.42;;;16.45;;
18196;SDS011;9224;52.422;13.024;2022-11-28T00:07:00;21.05;;;15.52;;
18196;SDS011;9224;52.422;13.024;2022-11-28T00:09:26;22.60;;;16.05;;
18196;SDS011;9224;52.422;13.024;2022-11-28T00:11:54;23.50;;;16.75;;
18196;SDS011;9224;52.422;13.024;2022-11-28T00:14:21;20.13;;;16.05;;
18196;SDS011;9224;52.422;13.024;2022-11-28T00:16:47;22.65;;;16.85;;
18196;SDS011;9224;52.422;13.024;2022-11-28T00:19:14;20.20;;;15.52;;
18196;SDS011;9224;52.422;13.024;2022-11-28T00:21:41;20.38;;;16.17;;
18196;SDS011;9224;52.422;13.024;2022-11-28T00:24:08;18.98;;;15.32;;
18196;SDS011;9224;52.422;13.024;2022-11-28T00:26:35;20.92;;;15.82;;
18196;SDS011;9224;52.422;13.024;2022-11-28T00:29:05;21.77;;;16.40;;
18196;SDS011;9224;52.422;13.024;2022-11-28T00:31:33;21.23;;;15.95;;
18196;SDS011;9224;52.422;13.024;2022-11-28T00:34:06;19.80;;;15.32;;
18196;SDS011;9224;52.422;13.024;2022-11-28T00:36:33;20.00;;;15.33;;
18196;SDS011;9224;52.422;13.024;2022-11-28T00:39:00;22.42;;;16.05;;
18196;SDS011;9224;52.422;13.024;2022-11-28T00:41:27;20.90;;;15.98;;
18196;SDS011;9224;52.422;13.024;2022-11-28T00:43:55;20.70;;;16.00;;
18196;SDS011;9224;52.422;13.024;2022-11-28T00:46:24;20.90;;;16.17;;
18196;SDS011;9224;52.422;13.024;2022-11-28T00:48:50;22.00;;;15.85;;
18196;SDS011;9224;52.422;13.024;2022-11-28T00:51:18;21.33;;;15.63;;
18196;SDS011;9224;52.422;13.024;2022-11-28T00:53:46;22.73;;;16.70;;
18196;SDS011;9224;52.422;13.024;2022-11-28T00:56:14;19.10;;;15.80;;
18196;SDS011;9224;52.422;13.024;2022-11-28T00:58:41;20.90;;;16.70;;
18196;SDS011;9224;52.422;13.024;2022-11-28T01:01:09;19.63;;;15.55;;
18196;SDS011;9224;52.422;13.024;2022-11-28T01:03:38;20.63;;;15.50;;
18196;SDS011;9224;52.422;13.024;2022-11-28T01:06:05;22.17;;;16.20;;
18196;SDS011;9224;52.422;13.024;2022-11-28T01:08:32;23.08;;;16.65;;
18196;SDS011;9224;52.422;13.024;2022-11-28T01:10:59;20.50;;;16.23;;
18196;SDS011;9224;52.422;13.024;2022-11-28T01:13:26;22.92;;;16.02;;
18196;SDS011;9224;52.422;13.024;2022-11-28T01:15:52;24.20;;;15.80;;
18196;SDS011;9224;52.422;13.024;2022-11-28T01:18:19;18.25;;;14.63;;
18196;SDS011;9224;52.422;13.024;2022-11-28T01:20:47;19.33;;;15.77;;
18196;SDS011;9224;52.422;13.024;2022-11-28T01:23:15;20.30;;;15.63;;
18196;SDS011;9224;52.422;13.024;2022-11-28T01:25:42;21.63;;;16.33;;
18196;SDS011;9224;52.422;13.024;2022-11-28T01:28:09;21.92;;;15.77;;
18196;SDS011;9224;52.422;13.024;2022-11-28T01:30:35;20.80;;;15.52;;
18196;SDS011;9224;52.422;13.024;2022-11-28T01:33:02;23.05;;;15.90;;
18196;SDS011;9224;52.422;13.024;2022-11-28T01:35:29;21.75;;;15.52;;
18196;SDS011;9224;52.422;13.024;2022-11-28T01:37:57;19.75;;;15.32;;
18196;SDS011;9224;52.422;13.024;2022-11-28T01:40:23;20.37;;;15.30;;
18196;SDS011;9224;52.422;13.024;2022-11-28T01:42:50;19.77;;;15.07;;
18196;SDS011;9224;52.422;13.024;2022-11-28T01:45:18;19.10;;;14.25;;
18196;SDS011;9224;52.422;13.024;2022-11-28T01:47:46;20.10;;;14.85;;
18196;SDS011;9224;52.422;13.024;2022-11-28T01:50:14;18.57;;;14.57;;
18196;SDS011;9224;52.422;13.024;2022-11-28T01:52:41;22.63;;;15.50;;
18196;SDS011;9224;52.422;13.024;2022-11-28T01:55:19;21.23;;;15.38;;
18196;SDS011;9224;52.422;13.024;2022-11-28T01:57:48;20.45;;;15.05;;
18196;SDS011;9224;52.422;13.024;2022-11-28T02:00:16;20.48;;;15.00;;
18196;SDS011;9224;52.422;13.024;2022-11-28T02:02:45;21.83;;;16.23;;
18196;SDS011;9224;52.422;13.024;2022-11-28T02:05:14;21.90;;;15.48;;
18196;SDS011;9224;52.422;13.024;2022-11-28T02:07:41;19.17;;;14.95;;
18196;SDS011;9224;52.422;13.024;2022-11-28T02:10:10;20.55;;;15.10;;
18196;SDS011;9224;52.422;13.024;2022-11-28T02:12:56;20.50;;;15.13;;
18196;SDS011;9224;52.422;13.024;2022-11-28T02:15:32;17.08;;;14.32;;
18196;SDS011;9224;52.422;13.024;2022-11-28T02:18:18;18.77;;;14.85;;
18196;SDS011;9224;52.422;13.024;2022-11-28T02:26:53;18.63;;;15.13;;
18196;SDS011;9224;52.422;13.024;2022-11-28T02:29:50;18.60;;;14.10;;
18196;SDS011;9224;52.422;13.024;2022-11-28T02:32:37;17.65;;;14.20;;
18196;SDS011;9224;52.422;13.024;2022-11-28T02:35:21;20.98;;;14.73;;
18196;SDS011;9224;52.422;13.024;2022-11-28T02:37:51;18.03;;;14.50;;
18196;SDS011;9224;52.422;13.024;2022-11-28T02:40:25;18.13;;;13.82;;
18196;SDS011;9224;52.422;13.024;2022-11-28T02:42:58;19.10;;;13.88;;
18196;SDS011;9224;52.422;13.024;2022-11-28T02:45:28;16.77;;;13.90;;
18196;SDS011;9224;52.422;13.024;2022-11-28T02:48:04;17.80;;;14.65;;
18196;SDS011;9224;52.422;13.024;2022-11-28T02:50:34;17.67;;;13.88;;
18196;SDS011;9224;52.422;13.024;2022-11-28T02:53:04;18.45;;;14.68;;
18196;SDS011;9224;52.422;13.024;2022-11-28T02:55:32;19.98;;;14.05;;
18196;SDS011;9224;52.422;13.024;2022-11-28T02:57:59;18.50;;;14.10;;
18196;SDS011;9224;52.422;13.024;2022-11-28T03:00:27;17.80;;;14.60;;
18196;SDS011;9224;52.422;13.024;2022-11-28T03:03:00;18.20;;;14.47;;
18196;SDS011;9224;52.422;13.024;2022-11-28T03:05:38;18.15;;;14.35;;
18196;SDS011;9224;52.422;13.024;2022-11-28T03:08:11;17.45;;;14.05;;
18196;SDS011;9224;52.422;13.024;2022-11-28T03:10:48;16.63;;;14.23;;
18196;SDS011;9224;52.422;13.024;2022-11-28T03:13:18;17.45;;;14.40;;
18196;SDS011;9224;52.422;13.024;2022-11-28T03:15:53;18.85;;;15.18;;
18196;SDS011;9224;52.422;13.024;2022-11-28T03:18:26;17.48;;;15.13;;
18196;SDS011;9224;52.422;13.024;2022-11-28T03:20:58;21.00;;;15.52;;
18196;SDS011;9224;52.422;13.024;2022-11-28T03:23:29;18.52;;;15.50;;
18196;SDS011;9224;52.422;13.024;2022-11-28T03:26:00;18.25;;;15.60;;
18196;SDS011;9224;52.422;13.024;2022-11-28T03:28:31;21.10;;;16.08;;
18196;SDS011;9224;52.422;13.024;2022-11-28T03:31:01;18.85;;;15.55;;
18196;SDS011;9224;52.422;13.024;2022-11-28T03:33:31;21.30;;;15.82;;
18196;SDS011;9224;52.422;13.024;2022-11-28T03:36:00;20.05;;;16.00;;
18196;SDS011;9224;52.422;13.024;2022-11-28T03:38:30;19.92;;;15.90;;
18196;SDS011;9224;52.422;13.024;2022-11-28T03:41:00;19.85;;;15.95;;
18196;SDS011;9224;52.422;13.024;2022-11-28T03:43:48;19.85;;;15.65;;
18196;SDS011;9224;52.422;13.024;2022-11-28T03:46:36;19.77;;;16.23;;
18196;SDS011;9224;52.422;13.024;2022-11-28T03:49:25;20.83;;;16.23;;
18196;SDS011;9224;52.422;13.024;2022-11-28T03:52:14;21.88;;;16.15;;
18196;SDS011;9224;52.422;13.024;2022-11-28T03:55:02;17.35;;;15.02;;
18196;SDS011;9224;52.422;13.024;2022-11-28T03:57:32;18.20;;;15.50;;
18196;SDS011;9224;52.422;13.024;2022-11-28T04:00:02;18.67;;;15.45;;
18196;SDS011;9224;52.422;13.024;2022-11-28T04:02:31;19.70;;;16.00;;
18196;SDS011;9224;52.422;13.024;2022-11-28T04:05:04;20.02;;;15.73;;
18196;SDS011;9224;52.422;13.024;2022-11-28T04:07:37;18.27;;;15.38;;
18196;SDS011;9224;52.422;13.024;2022-11-28T04:10:07;17.58;;;14.93;;
18196;SDS011;9224;52.422;13.024;2022-11-28T04:12:41;18.98;;;15.50;;
18196;SDS011;9224;52.422;13.024;2022-11-28T04:15:13;17.77;;;15.07;;
18196;SDS011;9224;52.422;13.024;2022-11-28T04:17:44;19.08;;;14.73;;
18196;SDS011;9224;52.422;13.024;2022-11-28T04:20:16;17.35;;;14.95;;
18196;SDS011;9224;52.422;13.024;2022-11-28T04:22:45;19.15;;;15.40;;
18196;SDS011;9224;52.422;13.024;2022-11-28T04:25:15;17.42;;;14.65;;
18196;SDS011;9224;52.422;13.024;2022-11-28T04:27:45;17.98;;;14.48;;
18196;SDS011;9224;52.422;13.024;2022-11-28T04:30:14;19.75;;;14.95;;
18196;SDS011;9224;52.422;13.024;2022-11-28T04:32:42;18.63;;;14.80;;
18196;SDS011;9224;52.422;13.024;2022-11-28T04:35:12;18.90;;;14.90;;
18196;SDS011;9224;52.422;13.024;2022-11-28T04:37:43;18.20;;;14.25;;
18196;SDS011;9224;52.422;13.024;2022-11-28T04:40:12;17.65;;;14.30;;
18196;SDS011;9224;52.422;13.024;2022-11-28T04:42:41;16.38;;;14.50;;
18196;SDS011;9224;52.422;13.024;2022-11-28T04:45:11;16.83;;;13.97;;
18196;SDS011;9224;52.422;13.024;2022-11-28T04:47:39;16.77;;;14.27;;
18196;SDS011;9224;52.422;13.024;2022-11-28T04:50:06;17.35;;;13.75;;
18196;SDS011;9224;52.422;13.024;2022-11-28T04:52:35;18.75;;;14.73;;
18196;SDS011;9224;52.422;13.024;2022-11-28T04:55:07;16.88;;;14.02;;
18196;SDS011;9224;52.422;13.024;2022-11-28T04:57:36;18.90;;;14.23;;
18196;SDS011;9224;52.422;13.024;2022-11-28T05:00:05;18.23;;;13.98;;
18196;SDS011;9224;52.422;13.024;2022-11-28T05:02:33;17.40;;;13.90;;
18196;SDS011;9224;52.422;13.024;2022-11-28T05:05:00;17.73;;;13.50;;
18196;SDS011;9224;52.422;13.024;2022-11-28T05:07:32;18.52;;;14.15;;
18196;SDS011;9224;52.422;13.024;2022-11-28T05:09:59;17.10;;;13.73;;
18196;SDS011;9224;52.422;13.024;2022-11-28T05:12:27;17.20;;;14.00;;
18196;SDS011;9224;52.422;13.024;2022-11-28T05:14:53;17.38;;;13.45;;
18196;SDS011;9224;52.422;13.024;2022-11-28T05:17:20;16.95;;;13.57;;
18196;SDS011;9224;52.422;13.024;2022-11-28T05:19:47;17.47;;;13.43;;
18196;SDS011;9224;52.422;13.024;2022-11-28T05:22:13;18.02;;;13.88;;
18196;SDS011;9224;52.422;13.024;2022-11-28T05:24:40;17.70;;;13.80;;
18196;SDS011;9224;52.422;13.024;2022-11-28T05:27:06;17.23;;;13.40;;
18196;SDS011;9224;52.422;13.024;2022-11-28T05:29:36;16.65;;;14.25;;
18196;SDS011;9224;52.422;13.024;2022-11-28T05:32:07;16.55;;;14.00;;
18196;SDS011;9224;52.422;13.024;2022-11-28T05:34:34;18.25;;;14.10;;
18196;SDS011;9224;52.422;13.024;2022-11-28T05:37:00;17.48;;;13.43;;
18196;SDS011;9224;52.422;13.024;2022-11-28T05:39:27;14.85;;;13.15;;
18196;SDS011;9224;52.422;13.024;2022-11-28T05:41:53;16.42;;;13.68;;
18196;SDS011;9224;52.422;13.024;2022-11-28T05:44:20;16.30;;;14.13;;
18196;SDS011;9224;52.422;13.024;2022-11-28T05:46:48;17.85;;;14.25;;
18196;SDS011;9224;52.422;13.024;2022-11-28T05:49:15;16.75;;;14.50;;
18196;SDS011;9224;52.422;13.024;2022-11-28T05:51:42;16.47;;;13.93;;
18196;SDS011;9224;52.422;13.024;2022-11-28T05:54:08;18.67;;;14.23;;
18196;SDS011;9224;52.422;13.024;2022-11-28T05:56:35;18.95;;;13.90;;
18196;SDS011;9224;52.422;13.024;2022-11-28T05:59:01;18.83;;;14.20;;
18196;SDS011;9224;52.422;13.024;2022-11-28T06:01:28;16.75;;;13.90;;
18196;SDS011;9224;52.422;13.024;2022-11-28T06:03:56;17.38;;;13.90;;
18196;SDS011;9224;52.422;13.024;2022-11-28T06:06:25;18.30;;;14.30;;
18196;SDS011;9224;52.422;13.024;2022-11-28T06:08:53;16.73;;;13.95;;
18196;SDS011;9224;52.422;13.024;2022-11-28T06:11:20;18.35;;;13.85;;
18196;SDS011;9224;52.422;13.024;2022-11-28T06:13:47;18.58;;;14.27;;
18196;SDS011;9224;52.422;13.024;2022-11-28T06:16:15;17.50;;;13.38;;
18196;SDS011;9224;52.422;13.024;2022-11-28T06:18:44;18.77;;;13.82;;
18196;SDS011;9224;52.422;13.024;2022-11-28T06:21:12;16.40;;;13.07;;
18196;SDS011;9224;52.422;13.024;2022-11-28T06:23:40;18.65;;;14.77;;
18196;SDS011;9224;52.422;13.024;2022-11-28T06:26:07;18.48;;;14.65;;
18196;SDS011;9224;52.422;13.024;2022-11-28T06:28:35;17.65;;;14.27;;
18196;SDS011;9224;52.422;13.024;2022-11-28T06:31:02;18.95;;;14.35;;
18196;SDS011;9224;52.422;13.024;2022-11-28T06:33:29;16.60;;;14.10;;
18196;SDS011;9224;52.422;13.024;2022-11-28T06:35:57;18.80;;;14.25;;
18196;SDS011;9224;52.422;13.024;2022-11-28T06:38:25;18.15;;;14.60;;
18196;SDS011;9224;52.422;13.024;2022-11-28T06:40:54;17.98;;;14.65;;
18196;SDS011;9224;52.422;13.024;2022-11-28T06:43:21;18.25;;;13.80;;
18196;SDS011;9224;52.422;13.024;2022-11-28T06:45:48;18.23;;;14.70;;
18196;SDS011;9224;52.422;13.024;2022-11-28T06:48:15;17.73;;;14.32;;
18196;SDS011;9224;52.422;13.024;2022-11-28T06:50:41;17.52;;;14.18;;
18196;SDS011;9224;52.422;13.024;2022-11-28T06:53:08;18.20;;;14.30;;
18196;SDS011;9224;52.422;13.024;2022-11-28T06:55:36;17.97;;;14.03;;
18196;SDS011;9224;52.422;13.024;2022-11-28T06:58:02;18.20;;;14.00;;
18196;SDS011;9224;52.422;13.024;2022-11-28T07:00:29;18.80;;;14.75;;
18196;SDS011;9224;52.422;13.024;2022-11-28T07:02:56;20.33;;;15.35;;
18196;SDS011;9224;52.422;13.024;2022-11-28T07:05:23;20.60;;;15.27;;
18196;SDS011;9224;52.422;13.024;2022-11-28T07:07:51;18.30;;;14.02;;
18196;SDS011;9224;52.422;13.024;2022-11-28T07:10:18;18.33;;;14.77;;
18196;SDS011;9224;52.422;13.024;2022-11-28T07:12:46;18.73;;;14.73;;
18196;SDS011;9224;52.422;13.024;2022-11-28T07:15:13;19.67;;;15.05;;
18196;SDS011;9224;52.422;13.024;2022-11-28T07:17:40;20.33;;;15.52;;
18196;SDS011;9224;52.422;13.024;2022-11-28T07:20:07;20.67;;;14.70;;
18196;SDS011;9224;52.422;13.024;2022-11-28T07:22:35;19.15;;;14.30;;
18196;SDS011;9224;52.422;13.024;2022-11-28T07:25:01;18.73;;;14.77;;
18196;SDS011;9224;52.422;13.024;2022-11-28T07:27:28;18.50;;;14.98;;
18196;SDS011;9224;52.422;13.024;2022-11-28T07:29:56;19.13;;;15.07;;
18196;SDS011;9224;52.422;13.024;2022-11-28T07:32:22;18.95;;;15.10;;
18196;SDS011;9224;52.422;13.024;2022-11-28T07:34:49;17.40;;;14.40;;
18196;SDS011;9224;52.422;13.024;2022-11-28T07:37:15;18.38;;;14.88;;
18196;SDS011;9224;52.422;13.024;2022-11-28T07:39:42;19.95;;;14.90;;
18196;SDS011;9224;52.422;13.024;2022-11-28T07:42:09;19.67;;;14.80;;
18196;SDS011;9224;52.422;13.024;2022-11-28T07:44:35;17.92;;;14.80;;
18196;SDS011;9224;52.422;13.024;2022-11-28T07:47:03;18.52;;;14.63;;
18196;SDS011;9224;52.422;13.024;2022-11-28T07:49:30;18.92;;;14.90;;
18196;SDS011;9224;52.422;13.024;2022-11-28T07:51:57;19.17;;;14.68;;
18196;SDS011;9224;52.422;13.024;2022-11-28T07:54:24;18.92;;;15.02;;
18196;SDS011;9224;52.422;13.024;2022-11-28T07:56:50;18.90;;;14.83;;
18196;SDS011;9224;52.422;13.024;2022-11-28T07:59:17;18.42;;;14.68;;
18196;SDS011;9224;52.422;13.024;2022-11-28T08:01:43;20.45;;;14.90;;
18196;SDS011;9224;52.422;13.024;2022-11-28T08:04:11;18.80;;;15.43;;
18196;SDS011;9224;52.422;13.024;2022-11-28T08:06:39;18.05;;;14.50;;
18196;SDS011;9224;52.422;13.024;2022-11-28T08:09:07;21.33;;;15.30;;
18196;SDS011;9224;52.422;13.024;2022-11-28T08:11:36;19.83;;;15.38;;
18196;SDS011;9224;52.422;13.024;2022-11-28T08:14:02;20.48;;;15.40;;
18196;SDS011;9224;52.422;13.024;2022-11-28T08:16:29;19.13;;;15.30;;
18196;SDS011;9224;52.422;13.024;2022-11-28T08:18:58;20.25;;;15.52;;
18196;SDS011;9224;52.422;13.024;2022-11-28T08:21:27;19.58;;;15.40;;
18196;SDS011;9224;52.422;13.024;2022-11-28T08:23:57;19.48;;;15.50;;
18196;SDS011;9224;52.422;13.024;2022-11-28T08:26:25;19.35;;;15.18;;
18196;SDS011;9224;52.422;13.024;2022-11-28T08:28:53;20.20;;;15.82;;
18196;SDS011;9224;52.422;13.024;2022-11-28T08:31:20;19.50;;;15.80;;
18196;SDS011;9224;52.422;13.024;2022-11-28T08:33:48;21.10;;;16.27;;
18196;SDS011;9224;52.422;13.024;2022-11-28T08:36:16;19.00;;;15.52;;
18196;SDS011;9224;52.422;13.024;2022-11-28T08:38:45;21.15;;;15.90;;
18196;SDS011;9224;52.422;13.024;2022-11-28T08:41:13;20.05;;;16.40;;
18196;SDS011;9224;52.422;13.024;2022-11-28T08:43:41;19.67;;;16.35;;
18196;SDS011;9224;52.422;13.024;2022-11-28T08:46:08;20.00;;;16.50;;
18196;SDS011;9224;52.422;13.024;2022-11-28T08:48:36;20.58;;;15.60;;
18196;SDS011;9224;52.422;13.024;2022-11-28T08:51:04;21.07;;;15.97;;
18196;SDS011;9224;52.422;13.024;2022-11-28T08:53:31;18.92;;;16.05;;
18196;SDS011;9224;52.422;13.024;2022-11-28T08:55:59;21.10;;;16.40;;
18196;SDS011;9224;52.422;13.024;2022-11-28T08:58:26;20.20;;;16.40;;
18196;SDS011;9224;52.422;13.024;2022-11-28T09:00:53;22.10;;;16.55;;
18196;SDS011;9224;52.422;13.024;2022-11-28T09:03:19;21.33;;;16.27;;
18196;SDS011;9224;52.422;13.024;2022-11-28T09:05:46;18.92;;;16.52;;
18196;SDS011;9224;52.422;13.024;2022-11-28T09:08:13;20.65;;;16.52;;
18196;SDS011;9224;52.422;13.024;2022-11-28T09:10:41;20.10;;;16.03;;
18196;SDS011;9224;52.422;13.024;2022-11-28T09:13:10;19.85;;;16.65;;
18196;SDS011;9224;52.422;13.024;2022-11-28T09:15:38;20.02;;;16.08;;
18196;SDS011;9224;52.422;13.024;2022-11-28T09:18:05;21.55;;;16.77;;
18196;SDS011;9224;52.422;13.024;2022-11-28T09:20:32;19.55;;;15.48;;
18196;SDS011;9224;52.422;13.024;2022-11-28T09:22:59;20.77;;;16.77;;
18196;SDS011;9224;52.422;13.024;2022-11-28T09:25:26;19.70;;;16.17;;
18196;SDS011;9224;52.422;13.024;2022-11-28T09:27:53;20.25;;;15.93;;
18196;SDS011;9224;52.422;13.024;2022-11-28T09:30:20;19.45;;;15.77;;
18196;SDS011;9224;52.422;13.024;2022-11-28T09:32:47;21.30;;;16.80;;
18196;SDS011;9224;52.422;13.024;2022-11-28T09:35:14;20.25;;;16.42;;
18196;SDS011;9224;52.422;13.024;2022-11-28T09:37:41;20.40;;;16.17;;
18196;SDS011;9224;52.422;13.024;2022-11-28T09:40:13;21.05;;;15.98;;
18196;SDS011;9224;52.422;13.024;2022-11-28T09:42:41;19.57;;;16.27;;
18196;SDS011;9224;52.422;13.024;2022-11-28T09:45:10;18.58;;;15.88;;
18196;SDS011;9224;52.422;13.024;2022-11-28T09:47:40;22.13;;;16.97;;
18196;SDS011;9224;52.422;13.024;2022-11-28T09:50:10;19.52;;;16.25;;
18196;SDS011;9224;52.422;13.024;2022-11-28T09:52:41;20.57;;;16.00;;
18196;SDS011;9224;52.422;13.024;2022-11-28T09:55:13;19.02;;;15.57;;
18196;SDS011;9224;52.422;13.024;2022-11-28T09:57:43;19.92;;;16.00;;
18196;SDS011;9224;52.422;13.024;2022-11-28T10:00:18;19.37;;;15.73;;
18196;SDS011;9224;52.422;13.024;2022-11-28T10:05:44;19.15;;;15.82;;
18196;SDS011;9224;52.422;13.024;2022-11-28T10:08:19;18.77;;;15.45;;
18196;SDS011;9224;52.422;13.024;2022-11-28T10:10:50;21.02;;;16.23;;
18196;SDS011;9224;52.422;13.024;2022-11-28T10:13:23;20.95;;;16.60;;
18196;SDS011;9224;52.422;13.024;2022-11-28T10:15:54;18.83;;;15.88;;
18196;SDS011;9224;52.422;13.024;2022-11-28T10:18:34;20.67;;;15.98;;
18196;SDS011;9224;52.422;13.024;2022-11-28T10:21:18;20.48;;;15.77;;
18196;SDS011;9224;52.422;13.024;2022-11-28T10:23:49;19.60;;;16.40;;
18196;SDS011;9224;52.422;13.024;2022-11-28T10:26:19;18.65;;;15.38;;
18196;SDS011;9224;52.422;13.024;2022-11-28T10:28:52;18.93;;;15.43;;
18196;SDS011;9224;52.422;13.024;2022-11-28T10:31:26;20.13;;;15.93;;
18196;SDS011;9224;52.422;13.024;2022-11-28T10:33:56;21.10;;;15.90;;
18196;SDS011;9224;52.422;13.024;2022-11-28T10:36:29;19.98;;;15.57;;
18196;SDS011;9224;52.422;13.024;2022-11-28T10:38:59;19.05;;;15.48;;
18196;SDS011;9224;52.422;13.024;2022-11-28T10:41:27;19.70;;;15.15;;
18196;SDS011;9224;52.422;13.024;2022-11-28T10:43:57;19.10;;;15.57;;
18196;SDS011;9224;52.422;13.024;2022-11-28T10:46:35;18.65;;;15.88;;
18196;SDS011;9224;52.422;13.024;2022-11-28T10:49:16;22.17;;;16.35;;
18196;SDS011;9224;52.422;13.024;2022-11-28T10:51:52;20.23;;;16.13;;
18196;SDS011;9224;52.422;13.024;2022-11-28T10:54:24;22.10;;;16.33;;
18196;SDS011;9224;52.422;13.024;2022-11-28T10:57:05;19.55;;;15.43;;
18196;SDS011;9224;52.422;13.024;2022-11-28T10:59:37;20.63;;;16.00;;
18196;SDS011;9224;52.422;13.024;2022-11-28T11:02:17;19.20;;;15.57;;
18196;SDS011;9224;52.422;13.024;2022-11-28T11:04:47;20.38;;;16.02;;
18196;SDS011;9224;52.422;13.024;2022-11-28T11:07:16;20.13;;;15.95;;
18196;SDS011;9224;52.422;13.024;2022-11-28T11:09:43;19.00;;;15.90;;
18196;SDS011;9224;52.422;13.024;2022-11-28T11:12:11;21.55;;;16.27;;
18196;SDS011;9224;52.422;13.024;2022-11-28T11:14:44;20.97;;;16.00;;
18196;SDS011;9224;52.422;13.024;2022-11-28T11:17:22;21.27;;;15.43;;
18196;SDS011;9224;52.422;13.024;2022-11-28T11:19:52;21.35;;;15.98;;
18196;SDS011;9224;52.422;13.024;2022-11-28T11:22:20;18.00;;;14.38;;
18196;SDS011;9224;52.422;13.024;2022-11-28T11:25:02;19.48;;;15.18;;
18196;SDS011;9224;52.422;13.024;2022-11-28T11:27:31;19.27;;;15.43;;
18196;SDS011;9224;52.422;13.024;2022-11-28T11:29:58;20.67;;;16.05;;
18196;SDS011;9224;52.422;13.024;2022-11-28T11:32:25;21.50;;;16.42;;
18196;SDS011;9224;52.422;13.024;2022-11-28T11:34:55;20.50;;;15.95;;
18196;SDS011;9224;52.422;13.024;2022-11-28T11:37:30;21.43;;;16.50;;
18196;SDS011;9224;52.422;13.024;2022-11-28T11:39:58;21.20;;;15.85;;
18196;SDS011;9224;52.422;13.024;2022-11-28T11:42:26;20.45;;;16.05;;
18196;SDS011;9224;52.422;13.024;2022-11-28T11:44:53;20.13;;;15.80;;
18196;SDS011;9224;52.422;13.024;2022-11-28T11:47:37;21.50;;;15.50;;
18196;SDS011;9224;52.422;13.024;2022-11-28T11:50:13;19.33;;;15.55;;
18196;SDS011;9224;52.422;13.024;2022-11-28T11:52:41;19.08;;;15.02;;
18196;SDS011;9224;52.422;13.024;2022-11-28T11:55:10;20.75;;;15.95;;
18196;SDS011;9224;52.422;13.024;2022-11-28T11:57:41;20.37;;;15.53;;
18196;SDS011;9224;52.422;13.024;2022-11-28T12:00:13;21.67;;;15.77;;
18196;SDS011;9224;52.422;13.024;2022-11-28T12:02:43;20.13;;;15.32;;
18196;SDS011;9224;52.422;13.024;2022-11-28T12:05:12;20.57;;;15.53;;
18196;SDS011;9224;52.422;13.024;2022-11-28T12:07:42;19.80;;;14.95;;
18196;SDS011;9224;52.422;13.024;2022-11-28T12:10:16;18.98;;;15.23;;
18196;SDS011;9224;52.422;13.024;2022-11-28T12:12:44;19.50;;;14.85;;
18196;SDS011;9224;52.422;13.024;2022-11-28T12:15:13;20.95;;;15.48;;
18196;SDS011;9224;52.422;13.024;2022-11-28T12:17:43;21.90;;;15.52;;
18196;SDS011;9224;52.422;13.024;2022-11-28T12:20:23;19.95;;;15.48;;
18196;SDS011;9224;52.422;13.024;2022-11-28T12:23:00;19.15;;;15.30;;
18196;SDS011;9224;52.422;13.024;2022-11-28T12:25:32;19.42;;;15.68;;
18196;SDS011;9224;52.422;13.024;2022-11-28T12:28:04;19.02;;;15.20;;
18196;SDS011;9224;52.422;13.024;2022-11-28T12:30:42;20.20;;;15.88;;
18196;SDS011;9224;52.422;13.024;2022-11-28T12:33:20;19.83;;;14.90;;
18196;SDS011;9224;52.422;13.024;2022-11-28T12:36:05;19.63;;;14.55;;
18196;SDS011;9224;52.422;13.024;2022-11-28T12:38:43;19.70;;;14.73;;
18196;SDS011;9224;52.422;13.024;2022-11-28T12:41:23;18.88;;;14.90;;
18196;SDS011;9224;52.422;13.024;2022-11-28T12:43:59;19.20;;;14.98;;
18196;SDS011;9224;52.422;13.024;2022-11-28T12:46:29;19.37;;;15.13;;
18196;SDS011;9224;52.422;13.024;2022-11-28T12:49:08;20.33;;;15.23;;
18196;SDS011;9224;52.422;13.024;2022-11-28T12:51:42;19.50;;;15.23;;
18196;SDS011;9224;52.422;13.024;2022-11-28T12:54:21;17.73;;;15.38;;
18196;SDS011;9224;52.422;13.024;2022-11-28T12:56:57;20.08;;;15.23;;
18196;SDS011;9224;52.422;13.024;2022-11-28T12:59:29;18.67;;;14.50;;
18196;SDS011;9224;52.422;13.024;2022-11-28T13:02:02;19.42;;;14.43;;
18196;SDS011;9224;52.422;13.024;2022-11-28T13:04:48;18.17;;;14.20;;
18196;SDS011;9224;52.422;13.024;2022-11-28T13:07:23;19.05;;;15.13;;
18196;SDS011;9224;52.422;13.024;2022-11-28T13:09:59;18.15;;;14.88;;
18196;SDS011;9224;52.422;13.024;2022-11-28T13:12:28;19.30;;;14.87;;
18196;SDS011;9224;52.422;13.024;2022-11-28T13:15:11;19.00;;;14.60;;
18196;SDS011;9224;52.422;13.024;2022-11-28T13:17:41;18.63;;;15.05;;
18196;SDS011;9224;52.422;13.024;2022-11-28T13:20:16;20.43;;;14.77;;
18196;SDS011;9224;52.422;13.024;2022-11-28T13:22:50;17.23;;;13.95;;
18196;SDS011;9224;52.422;13.024;2022-11-28T13:25:23;18.70;;;14.55;;
18196;SDS011;9224;52.422;13.024;2022-11-28T13:27:54;17.95;;;14.65;;
18196;SDS011;9224;52.422;13.024;2022-11-28T13:30:26;18.95;;;14.65;;
18196;SDS011;9224;52.422;13.024;2022-11-28T13:32:57;17.52;;;13.77;;
18196;SDS011;9224;52.422;13.024;2022-11-28T13:35:29;18.20;;;14.35;;
18196;SDS011;9224;52.422;13.024;2022-11-28T13:37:58;18.83;;;14.02;;
18196;SDS011;9224;52.422;13.024;2022-11-28T13:40:30;18.75;;;13.55;;
18196;SDS011;9224;52.422;13.024;2022-11-28T13:42:59;18.67;;;13.82;;
18196;SDS011;9224;52.422;13.024;2022-11-28T13:45:31;18.55;;;13.95;;
18196;SDS011;9224;52.422;13.024;2022-11-28T13:47:58;17.20;;;14.00;;
18196;SDS011;9224;52.422;13.024;2022-11-28T13:50:32;16.02;;;13.63;;
18196;SDS011;9224;52.422;13.024;2022-11-28T13:53:02;17.00;;;13.82;;
18196;SDS011;9224;52.422;13.024;2022-11-28T13:55:45;16.23;;;13.77;;
18196;SDS011;9224;52.422;13.024;2022-11-28T13:58:16;15.77;;;13.48;;
18196;SDS011;9224;52.422;13.024;2022-11-28T14:01:02;18.30;;;14.18;;
18196;SDS011;9224;52.422;13.024;2022-11-28T14:03:32;17.35;;;13.35;;
18196;SDS011;9224;52.422;13.024;2022-11-28T14:06:00;16.52;;;13.82;;
18196;SDS011;9224;52.422;13.024;2022-11-28T14:08:31;15.70;;;13.40;;
18196;SDS011;9224;52.422;13.024;2022-11-28T14:11:06;16.90;;;13.73;;
18196;SDS011;9224;52.422;13.024;2022-11-28T14:13:48;16.95;;;14.15;;
18196;SDS011;9224;52.422;13.024;2022-11-28T14:16:47;15.98;;;13.90;;
18196;SDS011;9224;52.422;13.024;2022-11-28T14:19:23;15.90;;;13.88;;
18196;SDS011;9224;52.422;13.024;2022-11-28T14:21:59;18.87;;;14.13;;
18196;SDS011;9224;52.422;13.024;2022-11-28T14:24:39;17.67;;;14.20;;
18196;SDS011;9224;52.422;13.024;2022-11-28T14:27:14;17.08;;;13.35;;
18196;SDS011;9224;52.422;13.024;2022-11-28T14:29:46;17.52;;;14.23;;
18196;SDS011;9224;52.422;13.024;2022-11-28T14:32:21;17.20;;;14.00;;
18196;SDS011;9224;52.422;13.024;2022-11-28T14:34:50;15.82;;;13.48;;
18196;SDS011;9224;52.422;13.024;2022-11-28T14:40:32;18.73;;;13.80;;
18196;SDS011;9224;52.422;13.024;2022-11-28T14:43:20;15.87;;;13.17;;
18196;SDS011;9224;52.422;13.024;2022-11-28T14:45:49;20.85;;;15.93;;
18196;SDS011;9224;52.422;13.024;2022-11-28T14:48:37;23.88;;;15.90;;
18196;SDS011;9224;52.422;13.024;2022-11-28T14:51:06;22.30;;;17.15;;
18196;SDS011;9224;52.422;13.024;2022-11-28T14:53:36;23.10;;;17.52;;